Time;durP1;ratioP1;P1;durP2;ratioP2;P2;SDS_P1;SDS_P2;PMS_P1;PMS_P2;Temp;Humidity;BMP_temperature;BMP_pressure;BME280_temperature;BME280_humidity;BME280_pressure;Samples;Min_cycle;Max_cycle;Signal;HPM_P1;HPM_P2
2022/01/18 00:00:30;;;;;;;0.70;0.70;;;;;;;2.91;78.58;94800.50;5154940;27;20320;-78
2022/01/18 00:02:58;;;;;;;2.92;0.90;;;;;;;2.81;78.83;94804.84;5154726;27;20212;-75
2022/01/18 00:05:26;;;;;;;1.08;0.90;;;;;;;2.82;78.64;94798.44;5141155;27;20291;-76
2022/01/18 00:07:53;;;;;;;1.70;1.20;;;;;;;2.84;78.68;94801.63;5155380;27;20228;-77
2022/01/18 00:10:22;;;;;;;1.15;0.98;;;;;;;2.83;78.58;94805.38;5155045;27;20208;-78
2022/01/18 00:13:08;;;;;;;1.88;1.05;;;;;;;2.93;77.64;94809.06;5154482;27;20192;-79
2022/01/18 00:15:42;;;;;;;0.63;0.63;;;;;;;2.79;77.40;94788.28;5154128;27;20277;-76
2022/01/18 00:18:13;;;;;;;1.65;0.93;;;;;;;2.85;76.84;94808.59;5153602;27;20199;-78
2022/01/18 00:20:58;;;;;;;2.22;1.27;;;;;;;2.85;76.66;94818.47;5155286;27;20197;-78
2022/01/18 00:23:26;;;;;;;1.60;1.30;;;;;;;2.94;76.14;94822.19;5154571;27;20188;-77
2022/01/18 00:25:56;;;;;;;2.15;1.45;;;;;;;2.84;75.76;94832.94;5153845;27;20220;-78
2022/01/18 00:28:25;;;;;;;2.50;1.60;;;;;;;2.94;75.24;94824.06;5154950;27;20204;-78
2022/01/18 00:33:52;;;;;;;2.50;1.40;;;;;;;3.00;73.82;94804.22;5151687;27;20670;-77
2022/01/18 00:36:27;;;;;;;3.08;2.10;;;;;;;3.06;73.38;94813.81;5141634;27;20586;-78
2022/01/18 00:38:55;;;;;;;1.50;1.20;;;;;;;3.11;73.02;94795.06;5154768;27;20223;-77
2022/01/18 00:41:24;;;;;;;3.00;1.75;;;;;;;3.10;72.04;94786.25;5154753;27;20223;-76
2022/01/18 00:43:52;;;;;;;2.55;1.85;;;;;;;2.98;72.44;94763.56;5154417;27;20196;-75
2022/01/18 00:46:20;;;;;;;4.57;1.77;;;;;;;3.14;71.99;94783.81;5154003;27;20261;-77
2022/01/18 00:48:47;;;;;;;1.33;1.20;;;;;;;3.03;71.57;94782.25;5153953;27;20204;-75
2022/01/18 00:51:15;;;;;;;2.28;1.50;;;;;;;2.90;72.64;94797.03;5153665;27;20653;-78
2022/01/18 00:53:44;;;;;;;1.60;1.50;;;;;;;2.93;72.12;94819.78;5154671;27;20296;-78
2022/01/18 00:56:21;;;;;;;2.08;1.42;;;;;;;2.97;72.07;94834.22;5153777;27;20237;-78
2022/01/18 00:58:49;;;;;;;2.17;1.48;;;;;;;2.99;71.56;94818.69;5148510;27;20232;-75
2022/01/18 01:01:21;;;;;;;2.05;1.40;;;;;;;3.04;71.36;94842.72;5146301;27;20220;-77
2022/01/18 01:03:49;;;;;;;3.08;1.85;;;;;;;3.11;71.29;94848.59;5140654;27;20523;-76
2022/01/18 01:06:16;;;;;;;2.90;1.80;;;;;;;3.06;71.28;94852.09;5154203;27;20228;-77
2022/01/18 01:08:43;;;;;;;2.30;1.52;;;;;;;3.01;71.93;94878.06;5154062;27;20220;-77
2022/01/18 01:11:12;;;;;;;2.25;1.65;;;;;;;2.97;72.93;94901.09;5154004;27;20204;-78
2022/01/18 01:13:44;;;;;;;3.28;2.03;;;;;;;2.81;74.50;94898.47;5154133;27;20307;-75
2022/01/18 01:16:29;;;;;;;2.50;1.80;;;;;;;2.57;76.57;94892.13;5153747;27;20583;-79
2022/01/18 01:19:12;;;;;;;9.05;3.05;;;;;;;2.17;80.25;94910.88;5154125;27;20207;-74
2022/01/18 01:33:09;;;;;;;5.88;2.53;;;;;;;1.03;91.85;94971.47;5154739;27;20237;-78
2022/01/18 01:35:48;;;;;;;3.00;1.85;;;;;;;0.73;92.36;94944.63;5154148;27;20586;-79
2022/01/18 01:44:02;;;;;;;2.00;1.30;;;;;;;0.83;93.04;94960.69;5154065;27;20195;-80
2022/01/18 01:46:30;;;;;;;2.63;2.00;;;;;;;0.78;93.11;94956.13;5153821;27;20213;-85
2022/01/18 01:48:58;;;;;;;3.00;1.83;;;;;;;0.75;93.19;94963.84;5153775;27;20670;-81
2022/01/18 01:51:30;;;;;;;3.65;2.17;;;;;;;0.87;91.33;94953.78;5153393;27;20257;-83
2022/01/18 01:53:58;;;;;;;1.95;1.60;;;;;;;0.97;89.74;94953.81;5153929;27;20254;-83
2022/01/18 01:56:25;;;;;;;3.05;2.15;;;;;;;0.99;87.98;94955.16;5154018;27;20211;-84
2022/01/18 01:58:52;;;;;;;2.80;1.52;;;;;;;0.98;87.35;94960.75;5146986;27;20814;-81
2022/01/18 02:01:19;;;;;;;3.95;1.98;;;;;;;0.90;86.32;94969.25;5146230;27;20296;-80
2022/01/18 02:03:46;;;;;;;4.57;1.92;;;;;;;0.87;85.81;94991.09;5153946;27;20204;-82
2022/01/18 02:06:13;;;;;;;2.80;2.15;;;;;;;0.91;83.93;94993.00;5153520;27;20274;-80
2022/01/18 02:08:43;;;;;;;3.45;2.30;;;;;;;0.86;83.37;94989.50;5153428;27;20219;-81
2022/01/18 02:11:09;;;;;;;2.20;1.48;;;;;;;0.85;81.86;94999.34;5154148;27;20204;-80
2022/01/18 02:13:37;;;;;;;3.10;1.55;;;;;;;0.79;79.15;94994.25;5153428;27;20223;-79
2022/01/18 02:21:45;;;;;;;2.42;1.40;;;;;;;0.73;76.76;94995.28;5153178;27;20232;-77
2022/01/18 02:21:50;;;;;;;1.17;0.95;;;;;;;0.56;72.63;95017.56;5139922;27;20191;-77
2022/01/18 02:24:21;;;;;;;1.65;0.77;;;;;;;0.50;71.73;95020.44;5151853;27;20248;-75
2022/01/18 02:26:48;;;;;;;1.05;0.70;;;;;;;0.41;70.51;95025.41;5152507;27;20547;-78
2022/01/18 02:29:16;;;;;;;0.75;0.50;;;;;;;0.50;68.59;95023.91;5152331;27;20204;-74
2022/01/18 02:31:43;;;;;;;0.95;0.52;;;;;;;0.53;67.30;95034.06;5152938;27;20264;-77
2022/01/18 02:34:14;;;;;;;1.73;1.02;;;;;;;0.46;67.55;95049.47;5152215;27;20632;-76
2022/01/18 02:36:41;;;;;;;0.60;0.40;;;;;;;0.48;66.52;95052.69;5151941;27;20239;-74
2022/01/18 02:39:11;;;;;;;1.30;0.73;;;;;;;0.50;64.51;95053.22;5151848;27;20284;-76
2022/01/18 02:41:38;;;;;;;1.75;0.85;;;;;;;0.58;63.83;95058.09;5152846;27;20202;-75
2022/01/18 02:44:07;;;;;;;0.50;0.50;;;;;;;0.46;64.36;95076.09;5152566;27;20685;-75
2022/01/18 02:46:35;;;;;;;0.95;0.68;;;;;;;0.42;63.71;95053.69;5152770;27;20598;-76
2022/01/18 02:49:03;;;;;;;0.52;0.40;;;;;;;0.30;63.91;95077.03;5155013;27;20211;-75
2022/01/18 02:51:30;;;;;;;0.93;0.77;;;;;;;0.29;63.71;95075.41;5156725;27;20227;-76
2022/01/18 02:54:02;;;;;;;0.52;0.52;;;;;;;0.24;63.56;95073.53;5156490;27;20225;-77
2022/01/18 02:56:33;;;;;;;1.05;0.52;;;;;;;0.31;63.05;95099.94;5156415;27;20682;-75
2022/01/18 02:59:16;;;;;;;0.60;0.52;;;;;;;0.24;62.68;95094.84;5143265;27;20212;-77
2022/01/18 03:04:27;;;;;;;1.40;0.95;;;;;;;0.12;61.86;95115.47;5157015;27;20325;-76
2022/01/18 03:06:54;;;;;;;0.88;0.63;;;;;;;0.05;62.18;95116.72;5156002;27;20236;-75
2022/01/18 03:09:21;;;;;;;0.93;0.70;;;;;;;-0.03;62.66;95121.44;5156399;27;20200;-76
2022/01/18 03:11:49;;;;;;;1.17;0.93;;;;;;;-0.06;62.04;95135.25;5156406;27;20635;-77
2022/01/18 03:14:16;;;;;;;1.95;0.95;;;;;;;-0.10;62.21;95136.78;5156416;27;20241;-75
2022/01/18 03:16:43;;;;;;;1.25;0.70;;;;;;;-0.11;62.70;95124.53;5142684;27;20257;-75
2022/01/18 03:19:10;;;;;;;0.47;0.47;;;;;;;-0.15;62.80;95134.09;5156022;27;20193;-76
2022/01/18 03:21:37;;;;;;;5.47;0.77;;;;;;;-0.12;62.94;95138.88;5149890;27;20193;-76
2022/01/18 03:24:20;;;;;;;0.77;0.60;;;;;;;-0.12;62.58;95128.25;5155824;27;20216;-75
2022/01/18 03:29:33;;;;;;;0.85;0.60;;;;;;;-0.26;62.69;95158.94;5154336;27;20223;-77
2022/01/18 03:32:00;;;;;;;2.00;0.68;;;;;;;-0.29;63.59;95163.97;5155724;27;20199;-75
2022/01/18 03:34:27;;;;;;;4.35;1.20;;;;;;;-0.28;62.93;95178.91;5155747;27;20689;-76
2022/01/18 03:36:54;;;;;;;1.45;0.93;;;;;;;-0.37;63.60;95183.81;5156178;27;20204;-76
2022/01/18 03:39:21;;;;;;;1.65;0.98;;;;;;;-0.47;63.70;95194.31;5155864;27;20581;-78
2022/01/18 03:41:54;;;;;;;1.42;0.90;;;;;;;-0.52;64.41;95202.22;5155629;27;20208;-75
2022/01/18 03:44:24;;;;;;;1.85;0.93;;;;;;;-0.49;64.20;95201.75;5142374;27;20275;-76
2022/01/18 03:46:53;;;;;;;0.70;0.70;;;;;;;-0.57;64.49;95199.50;5155945;27;20209;-76
2022/01/18 03:49:23;;;;;;;5.57;0.85;;;;;;;-0.53;64.95;95192.63;5155438;27;20204;-78
2022/01/18 03:51:50;;;;;;;2.15;0.90;;;;;;;-0.63;64.85;95203.13;5153760;27;20220;-78
2022/01/18 03:54:21;;;;;;;0.85;0.68;;;;;;;-0.74;64.79;95200.31;5154773;27;20196;-79
2022/01/18 03:56:50;;;;;;;1.60;1.10;;;;;;;-0.73;64.26;95207.25;5153829;27;20193;-77
2022/01/18 03:59:17;;;;;;;0.93;0.70;;;;;;;-0.78;64.01;95228.44;5153558;27;20215;-78
2022/01/18 04:01:44;;;;;;;1.10;0.52;;;;;;;-0.79;63.92;95234.81;5153717;27;20203;-77
2022/01/18 04:04:11;;;;;;;1.42;0.75;;;;;;;-0.79;64.35;95240.13;5154338;27;20531;-76
2022/01/18 04:06:38;;;;;;;1.20;0.73;;;;;;;-0.74;64.60;95242.88;5153702;27;20220;-77
2022/01/18 04:09:05;;;;;;;1.20;0.90;;;;;;;-0.76;63.44;95238.84;5152189;27;20208;-77
2022/01/18 04:11:32;;;;;;;0.60;0.60;;;;;;;-0.70;63.90;95255.69;5154611;27;20227;-77
2022/01/18 04:14:00;;;;;;;1.48;0.63;;;;;;;-0.71;63.30;95246.91;5155681;27;20283;-78
2022/01/18 04:16:27;;;;;;;0.68;0.68;;;;;;;-0.75;63.22;95249.25;5154680;27;20228;-77
2022/01/18 04:18:59;;;;;;;0.85;0.82;;;;;;;-0.70;64.06;95263.69;5154823;27;20689;-78
2022/01/18 04:27:01;;;;;;;1.27;0.70;;;;;;;-0.62;64.05;95287.22;5154494;27;20233;-77
2022/01/18 04:29:29;;;;;;;2.30;1.25;;;;;;;-0.77;63.73;95291.22;5154176;27;20568;-77
2022/01/18 04:31:56;;;;;;;0.70;0.70;;;;;;;-0.62;63.39;95295.19;5154988;27;20196;-78
2022/01/18 04:34:22;;;;;;;1.45;0.98;;;;;;;-0.66;64.04;95291.38;5154952;27;20216;-78
2022/01/18 04:36:50;;;;;;;1.35;1.10;;;;;;;-0.57;63.55;95311.25;5155021;27;20228;-78
2022/01/18 04:39:17;;;;;;;1.02;0.93;;;;;;;-0.63;63.44;95302.38;5154515;27;20196;-77
2022/01/18 04:41:46;;;;;;;2.13;1.00;;;;;;;-0.66;63.35;95321.47;5154603;27;20205;-76
2022/01/18 04:49:41;;;;;;;0.55;0.55;;;;;;;-0.69;63.44;95366.38;5154471;27;20578;-77
2022/01/18 04:52:10;;;;;;;2.42;1.63;;;;;;;-0.58;62.55;95363.66;5154440;27;20208;-76
2022/01/18 04:54:41;;;;;;;0.60;0.60;;;;;;;-0.64;63.37;95358.47;5154808;27;20200;-76
2022/01/18 04:59:53;;;;;;;0.70;0.70;;;;;;;-0.62;62.82;95356.38;5154109;27;20581;-79
2022/01/18 05:02:21;;;;;;;0.90;0.70;;;;;;;-0.63;63.20;95365.41;5153945;27;20264;-77
2022/01/18 05:04:49;;;;;;;1.08;0.70;;;;;;;-0.54;63.53;95355.97;5154173;27;20693;-77
2022/01/18 05:07:18;;;;;;;0.75;0.55;;;;;;;-0.56;63.99;95366.06;5153613;27;20228;-76
2022/01/18 05:09:49;;;;;;;1.05;0.70;;;;;;;-0.73;64.01;95361.53;5154124;27;20196;-77
2022/01/18 05:12:25;;;;;;;1.75;1.02;;;;;;;-0.77;63.38;95364.88;5154151;27;20195;-76
2022/01/18 05:14:53;;;;;;;2.05;1.08;;;;;;;-0.70;63.80;95364.75;5153260;27;20671;-77
2022/01/18 05:17:38;;;;;;;3.42;1.10;;;;;;;-0.72;63.11;95352.50;5153313;27;20204;-76
2022/01/18 05:20:37;;;;;;;3.45;1.27;;;;;;;-0.59;63.27;95371.88;5140012;27;20192;-76
2022/01/18 05:23:02;;;;;;;1.42;1.10;;;;;;;-0.68;63.81;95381.28;5153151;27;20287;-77
2022/01/18 05:25:29;;;;;;;2.00;1.05;;;;;;;-0.65;63.70;95388.78;5152595;27;20284;-77
2022/01/18 05:27:57;;;;;;;1.48;0.80;;;;;;;-0.80;63.79;95394.59;5153074;27;20220;-76
2022/01/18 05:30:24;;;;;;;3.25;0.93;;;;;;;-0.80;63.92;95408.72;5152825;27;20287;-77
2022/01/18 05:32:52;;;;;;;1.30;0.82;;;;;;;-0.74;63.67;95406.97;5152696;27;20220;-78
2022/01/18 05:35:20;;;;;;;2.33;1.20;;;;;;;-0.76;63.67;95409.88;5153674;27;20196;-76
2022/01/18 05:37:47;;;;;;;1.38;0.85;;;;;;;-0.77;64.65;95418.09;5153139;27;20238;-75
2022/01/18 05:40:14;;;;;;;0.70;0.70;;;;;;;-0.80;64.39;95414.03;5153433;27;20265;-77
2022/01/18 05:42:41;;;;;;;0.70;0.70;;;;;;;-0.77;63.80;95410.09;5152950;27;20196;-76
2022/01/18 05:45:08;;;;;;;1.50;0.90;;;;;;;-0.85;64.80;95410.50;5153020;27;20203;-76
2022/01/18 05:47:36;;;;;;;1.13;0.90;;;;;;;-0.87;64.57;95421.34;5152884;27;20557;-77
2022/01/18 05:50:04;;;;;;;6.38;1.10;;;;;;;-0.87;65.21;95418.69;5153161;27;20231;-77
2022/01/18 05:52:31;;;;;;;1.42;0.82;;;;;;;-0.85;64.75;95419.28;5153258;27;20204;-78
2022/01/18 05:54:58;;;;;;;1.75;0.95;;;;;;;-0.86;64.81;95427.50;5152833;27;20200;-76
2022/01/18 05:57:25;;;;;;;1.92;1.05;;;;;;;-0.93;64.83;95438.25;5152843;27;20220;-78
2022/01/18 06:00:00;;;;;;;2.55;1.13;;;;;;;-0.89;64.42;95430.63;5153072;27;20196;-76
2022/01/18 06:02:37;;;;;;;2.45;0.90;;;;;;;-0.90;64.56;95444.94;5152420;27;20188;-76
2022/01/18 06:07:54;;;;;;;1.58;1.45;;;;;;;-0.92;64.05;95439.88;5152930;27;20222;-78
2022/01/18 06:10:21;;;;;;;19.70;1.70;;;;;;;-0.93;64.70;95456.84;5153236;27;20289;-77
2022/01/18 06:12:48;;;;;;;3.05;1.40;;;;;;;-0.84;65.20;95474.09;5152566;27;20203;-78
2022/01/18 06:15:15;;;;;;;0.90;0.77;;;;;;;-0.65;63.77;95463.25;5152431;27;20247;-77
2022/01/18 06:17:42;;;;;;;2.33;1.20;;;;;;;-0.36;64.03;95467.53;5152558;27;20697;-79
2022/01/18 06:20:11;;;;;;;3.05;1.20;;;;;;;-0.02;62.19;95471.88;5136480;27;20223;-78
2022/01/18 06:22:41;;;;;;;1.13;1.00;;;;;;;0.07;61.86;95476.81;5146885;27;20201;-78
2022/01/18 06:25:09;;;;;;;1.10;0.90;;;;;;;0.34;61.56;95477.78;5152570;27;20547;-79
2022/01/18 06:27:36;;;;;;;1.55;0.77;;;;;;;0.43;60.71;95478.19;5152357;27;20192;-78
2022/01/18 06:30:05;;;;;;;1.80;1.42;;;;;;;0.48;60.14;95470.28;5151834;27;20219;-77
2022/01/18 06:32:35;;;;;;;2.20;0.98;;;;;;;0.83;60.17;95464.63;5151341;27;20227;-76
2022/01/18 06:35:01;;;;;;;2.50;0.80;;;;;;;0.78;59.09;95467.25;5151246;27;20651;-77
2022/01/18 06:37:30;;;;;;;0.95;0.82;;;;;;;0.97;59.47;95465.91;5152611;27;20211;-78
2022/01/18 06:40:01;;;;;;;2.50;1.20;;;;;;;0.87;59.07;95466.56;5151971;27;20207;-75
2022/01/18 06:42:28;;;;;;;3.67;1.98;;;;;;;0.78;59.85;95476.06;5151275;27;20232;-77
2022/01/18 06:44:55;;;;;;;2.22;0.90;;;;;;;0.59;60.84;95454.19;5151738;27;20197;-77
2022/01/18 06:47:22;;;;;;;1.67;1.10;;;;;;;0.40;61.03;95455.50;5151899;27;20212;-78
2022/01/18 06:49:48;;;;;;;1.00;0.90;;;;;;;0.39;62.04;95464.56;5151855;27;20203;-78
2022/01/18 06:52:15;;;;;;;1.40;1.13;;;;;;;0.12;61.57;95458.25;5151593;27;20208;-76
2022/01/18 06:54:44;;;;;;;1.40;0.88;;;;;;;0.15;62.66;95476.41;5151576;27;20228;-75
2022/01/18 06:57:11;;;;;;;3.72;1.52;;;;;;;0.02;62.23;95490.03;5151337;27;20259;-75
2022/01/18 06:59:38;;;;;;;3.75;1.35;;;;;;;-0.02;62.65;95490.53;5139350;27;20204;-77
2022/01/18 07:02:06;;;;;;;2.35;0.93;;;;;;;-0.07;63.39;95492.28;5150955;27;20192;-77
2022/01/18 07:04:32;;;;;;;1.00;0.80;;;;;;;-0.11;62.69;95486.63;5151083;27;20242;-76
2022/01/18 07:06:59;;;;;;;2.67;1.13;;;;;;;-0.12;63.49;95485.00;5152120;27;20554;-78
2022/01/18 07:09:26;;;;;;;1.15;0.93;;;;;;;-0.02;62.72;95495.84;5151773;27;20236;-78
2022/01/18 07:11:56;;;;;;;9.10;1.23;;;;;;;-0.03;63.11;95502.22;5151618;27;20571;-78
2022/01/18 07:14:24;;;;;;;2.20;1.55;;;;;;;0.08;62.58;95510.38;5151612;27;20228;-77
2022/01/18 07:16:51;;;;;;;1.15;0.85;;;;;;;0.14;62.81;95525.38;5152440;27;20184;-75
2022/01/18 07:19:19;;;;;;;2.42;1.52;;;;;;;0.03;63.18;95518.28;5151774;27;20197;-75
2022/01/18 07:21:45;;;;;;;5.03;1.20;;;;;;;0.09;62.79;95528.00;5151458;27;20191;-76
2022/01/18 07:24:19;;;;;;;3.90;1.60;;;;;;;0.29;62.93;95528.31;5152174;27;20193;-76
2022/01/18 07:26:46;;;;;;;1.83;1.25;;;;;;;0.37;62.28;95540.47;5152136;27;20220;-77
2022/01/18 07:29:15;;;;;;;3.15;1.50;;;;;;;0.22;61.12;95536.47;5151789;27;20233;-75
2022/01/18 07:31:42;;;;;;;2.70;1.30;;;;;;;0.24;62.06;95538.91;5151102;27;20225;-76
2022/01/18 07:34:13;;;;;;;1.60;1.00;;;;;;;0.21;63.00;95531.38;5150597;27;20704;-74
2022/01/18 07:36:40;;;;;;;1.50;1.25;;;;;;;0.22;61.87;95535.66;5154539;27;20220;-74
2022/01/18 07:39:07;;;;;;;3.22;1.15;;;;;;;0.31;61.75;95539.56;5155340;27;20211;-75
2022/01/18 07:41:34;;;;;;;1.88;1.30;;;;;;;0.42;63.23;95522.69;5155234;27;20204;-80
2022/01/18 07:44:00;;;;;;;2.38;1.35;;;;;;;0.40;62.01;95535.47;5155944;27;20224;-78
2022/01/18 07:46:29;;;;;;;2.75;1.38;;;;;;;1.33;63.54;95542.72;5155428;27;20200;-80
2022/01/18 07:48:55;;;;;;;2.75;1.00;;;;;;;0.97;61.86;95540.59;5151317;27;20486;-75
2022/01/18 07:51:22;;;;;;;5.28;1.00;;;;;;;0.52;61.72;95560.19;5154890;27;20248;-75
2022/01/18 07:53:49;;;;;;;5.63;1.35;;;;;;;0.65;61.84;95543.06;5155068;27;20208;-76
2022/01/18 07:56:16;;;;;;;1.52;1.23;;;;;;;0.65;61.17;95559.03;5154823;27;20639;-75
2022/01/18 07:58:43;;;;;;;2.47;1.38;;;;;;;0.39;62.49;95570.34;5154603;27;20192;-76
2022/01/18 08:01:10;;;;;;;1.17;1.08;;;;;;;0.51;62.81;95568.41;5154909;27;20677;-75
2022/01/18 08:03:38;;;;;;;5.05;1.30;;;;;;;0.57;61.39;95567.44;5154794;27;20220;-75
2022/01/18 08:06:05;;;;;;;2.65;1.30;;;;;;;0.75;61.45;95575.19;5144911;27;20197;-77
2022/01/18 08:08:32;;;;;;;1.83;1.42;;;;;;;0.85;60.73;95577.22;5140049;27;20795;-77
2022/01/18 08:10:59;;;;;;;1.80;1.10;;;;;;;0.53;61.03;95556.47;5154531;27;20261;-75
2022/01/18 08:13:46;;;;;;;3.63;1.48;;;;;;;0.82;61.22;95573.16;5155036;27;20200;-75
2022/01/18 08:16:34;;;;;;;1.67;1.05;;;;;;;0.57;61.86;95586.91;5154685;27;20281;-77
2022/01/18 08:19:04;;;;;;;1.33;1.17;;;;;;;0.64;61.98;95584.09;5154808;27;20249;-77
2022/01/18 08:21:31;;;;;;;2.42;1.80;;;;;;;0.57;61.59;95584.22;5154172;27;20192;-74
2022/01/18 08:23:58;;;;;;;3.17;1.20;;;;;;;0.66;61.46;95588.13;5154864;27;20208;-74
2022/01/18 08:26:25;;;;;;;3.50;1.60;;;;;;;0.62;61.47;95596.84;5154547;27;20203;-74
2022/01/18 08:28:52;;;;;;;1.08;0.88;;;;;;;0.76;60.73;95592.00;5154331;27;20690;-76
2022/01/18 08:31:19;;;;;;;1.27;0.95;;;;;;;0.75;60.99;95601.06;5153915;27;20228;-74
2022/01/18 08:33:46;;;;;;;3.55;1.30;;;;;;;1.11;60.40;95594.41;5154388;27;20269;-75
2022/01/18 08:36:14;;;;;;;1.52;1.10;;;;;;;0.97;59.93;95602.75;5153427;27;20223;-73
2022/01/18 08:38:41;;;;;;;7.20;1.73;;;;;;;1.00;59.98;95604.13;5153651;27;20197;-75
2022/01/18 08:41:08;;;;;;;4.95;1.25;;;;;;;0.88;60.19;95595.41;5154199;27;20241;-74
2022/01/18 08:43:36;;;;;;;1.30;0.90;;;;;;;0.89;60.54;95610.34;5154227;27;20223;-74
2022/01/18 08:46:04;;;;;;;3.38;1.98;;;;;;;0.99;59.85;95608.66;5153448;27;20231;-76
2022/01/18 08:48:31;;;;;;;3.42;1.83;;;;;;;0.92;59.08;95605.34;5152736;27;20274;-74
2022/01/18 08:50:59;;;;;;;1.55;1.00;;;;;;;1.01;58.62;95608.41;5153876;27;20679;-76
2022/01/18 08:53:28;;;;;;;2.47;1.38;;;;;;;1.12;58.67;95612.84;5154147;27;20212;-75
2022/01/18 08:55:55;;;;;;;3.40;1.45;;;;;;;1.32;57.63;95607.81;5154012;27;20216;-78
2022/01/18 08:58:22;;;;;;;1.48;0.60;;;;;;;1.16;57.60;95638.00;5153982;27;20362;-75
2022/01/18 09:00:49;;;;;;;2.17;1.05;;;;;;;1.27;57.60;95620.28;5153178;27;20287;-74
2022/01/18 09:03:16;;;;;;;2.05;1.08;;;;;;;1.26;56.95;95635.47;5152350;27;20231;-76
2022/01/18 09:05:44;;;;;;;4.45;1.27;;;;;;;1.11;57.59;95619.22;5153280;27;20220;-74
2022/01/18 09:08:13;;;;;;;1.08;0.80;;;;;;;1.28;57.76;95622.69;5152540;27;20204;-77
2022/01/18 09:10:44;;;;;;;1.52;1.20;;;;;;;1.21;57.86;95622.06;5153934;27;20258;-74
2022/01/18 09:13:11;;;;;;;1.20;0.63;;;;;;;1.12;58.26;95618.19;5153849;27;20222;-72
2022/01/18 09:15:38;;;;;;;2.30;1.20;;;;;;;1.23;58.50;95617.28;5152525;27;20315;-76
2022/01/18 09:18:05;;;;;;;3.85;1.25;;;;;;;1.20;58.17;95615.13;5152855;27;20201;-75
2022/01/18 09:20:32;;;;;;;21.30;1.92;;;;;;;0.99;58.38;95607.84;5153017;27;20227;-76
2022/01/18 09:23:00;;;;;;;2.75;1.30;;;;;;;1.11;57.78;95616.56;5153750;27;20203;-80
2022/01/18 09:25:28;;;;;;;2.40;1.27;;;;;;;0.92;57.45;95609.88;5153228;27;20401;-74
2022/01/18 09:27:57;;;;;;;8.73;2.03;;;;;;;1.04;57.60;95613.25;5152791;27;20695;-77
2022/01/18 09:30:26;;;;;;;1.33;0.90;;;;;;;1.26;58.04;95616.78;5152993;27;20232;-78
2022/01/18 09:32:54;;;;;;;1.33;1.05;;;;;;;1.23;58.14;95606.59;5153057;27;20217;-77
2022/01/18 09:35:21;;;;;;;2.42;1.33;;;;;;;1.05;58.46;95596.22;5153580;27;20284;-74
2022/01/18 09:37:49;;;;;;;3.58;1.58;;;;;;;1.04;58.63;95615.94;5153599;27;20211;-76
2022/01/18 09:40:19;;;;;;;3.78;2.05;;;;;;;0.91;60.47;95601.06;5151916;27;20294;-76
2022/01/18 09:42:46;;;;;;;0.85;0.85;;;;;;;1.00;59.91;95590.78;5152986;27;20193;-75
2022/01/18 09:45:17;;;;;;;1.33;1.20;;;;;;;1.09;59.02;95591.19;5153371;27;20264;-73
2022/01/18 09:47:48;;;;;;;1.35;0.77;;;;;;;1.16;58.37;95579.28;5138700;27;20239;-77
2022/01/18 09:50:18;;;;;;;3.67;1.45;;;;;;;1.43;58.71;95588.22;5152833;27;20216;-74
2022/01/18 09:52:50;;;;;;;3.05;1.27;;;;;;;1.30;58.20;95587.75;5153118;27;20184;-73
2022/01/18 09:55:17;;;;;;;2.78;1.13;;;;;;;1.47;58.64;95569.84;5152306;27;20220;-76
2022/01/18 09:57:44;;;;;;;3.97;1.48;;;;;;;1.52;58.86;95595.78;5152052;27;20223;-80
2022/01/18 10:00:12;;;;;;;4.55;1.40;;;;;;;1.16;59.40;95607.84;5153732;27;20207;-73
2022/01/18 10:02:41;;;;;;;2.78;1.10;;;;;;;1.37;59.55;95610.53;5152206;27;20216;-74
2022/01/18 10:05:24;;;;;;;4.43;2.00;;;;;;;1.97;67.48;95599.03;5152695;27;20220;-76
2022/01/18 10:07:59;;;;;;;3.30;1.83;;;;;;;1.24;60.20;95610.06;5150918;27;20204;-79
2022/01/18 10:10:37;;;;;;;1.27;1.02;;;;;;;1.28;59.94;95605.88;5138492;27;20227;-77
2022/01/18 10:13:05;;;;;;;3.92;1.70;;;;;;;1.20;59.62;95591.09;5152660;27;20207;-76
2022/01/18 10:15:32;;;;;;;1.95;1.20;;;;;;;1.28;59.33;95611.22;5152313;27;20232;-75
2022/01/18 10:18:07;;;;;;;15.13;1.58;;;;;;;1.12;59.34;95607.50;5152287;27;20589;-76
2022/01/18 10:20:48;;;;;;;1.33;0.88;;;;;;;1.27;59.55;95613.06;5152479;27;20230;-74
2022/01/18 10:23:21;;;;;;;3.05;1.45;;;;;;;1.45;58.78;95612.00;5152582;27;20200;-76
2022/01/18 10:25:48;;;;;;;12.35;2.22;;;;;;;1.59;57.74;95604.44;5152725;27;20491;-74
2022/01/18 10:28:33;;;;;;;4.72;1.20;;;;;;;1.78;57.81;95603.88;5152253;27;20210;-77
2022/01/18 10:31:05;;;;;;;1.92;1.38;;;;;;;1.50;58.81;95609.41;5152121;27;20309;-75
2022/01/18 10:33:38;;;;;;;3.63;1.50;;;;;;;1.63;59.24;95613.56;5152123;27;20275;-76
2022/01/18 10:36:10;;;;;;;2.58;1.30;;;;;;;1.67;57.78;95596.00;5151383;27;20315;-75
2022/01/18 10:38:37;;;;;;;1.15;0.88;;;;;;;1.72;56.47;95591.53;5152437;27;20753;-73
2022/01/18 10:41:24;;;;;;;1.58;1.23;;;;;;;1.83;56.56;95595.13;5151642;27;20227;-77
2022/01/18 10:44:06;;;;;;;1.45;1.00;;;;;;;1.68;56.29;95589.59;5151871;27;20203;-75
2022/01/18 10:46:38;;;;;;;3.40;1.38;;;;;;;1.54;57.13;95585.66;5150694;27;20663;-75
2022/01/18 10:49:08;;;;;;;1.60;1.20;;;;;;;1.56;56.68;95580.91;5151131;27;20220;-76
2022/01/18 10:51:37;;;;;;;1.10;1.00;;;;;;;1.69;56.87;95588.53;5151772;27;20206;-75
2022/01/18 10:54:06;;;;;;;4.22;2.08;;;;;;;1.52;57.34;95583.25;5138030;27;20221;-76
2022/01/18 10:56:41;;;;;;;2.75;1.38;;;;;;;1.56;56.62;95592.38;5150179;27;20220;-75
2022/01/18 10:59:15;;;;;;;2.97;1.20;;;;;;;1.57;57.25;95603.88;5150250;27;20204;-75
2022/01/18 11:01:42;;;;;;;2.92;1.33;;;;;;;1.59;56.71;95607.09;5151123;27;20226;-74
2022/01/18 11:04:14;;;;;;;3.22;1.55;;;;;;;1.67;56.00;95601.31;5151841;27;20211;-75
2022/01/18 11:06:44;;;;;;;2.92;1.35;;;;;;;1.64;56.37;95599.97;5151941;27;20219;-75
2022/01/18 11:09:13;;;;;;;3.45;1.42;;;;;;;1.98;55.88;95592.63;5152985;27;20227;-76
2022/01/18 11:11:45;;;;;;;2.92;1.50;;;;;;;1.90;56.01;95585.06;5154746;27;20300;-77
2022/01/18 11:14:14;;;;;;;3.13;1.60;;;;;;;1.72;55.16;95574.69;5154339;27;20207;-74
2022/01/18 11:16:44;;;;;;;4.53;1.40;;;;;;;1.72;56.37;95580.03;5155598;27;20184;-75
2022/01/18 11:19:28;;;;;;;2.42;1.50;;;;;;;1.52;55.37;95590.44;5156084;27;20212;-77
2022/01/18 11:21:57;;;;;;;2.25;0.88;;;;;;;1.51;55.94;95578.16;5144604;27;20211;-72
2022/01/18 11:24:25;;;;;;;1.50;1.40;;;;;;;1.57;55.62;95593.19;5153913;27;20231;-76
2022/01/18 11:26:52;;;;;;;1.88;1.17;;;;;;;1.56;56.46;95599.59;5146264;27;20746;-75
2022/01/18 11:29:21;;;;;;;3.63;1.48;;;;;;;1.94;55.62;95599.53;5150950;27;20227;-74
2022/01/18 11:31:49;;;;;;;5.35;1.20;;;;;;;1.72;55.26;95590.72;5155448;27;20220;-74
2022/01/18 11:34:32;;;;;;;1.85;1.15;;;;;;;1.90;55.15;95595.75;5155340;27;20751;-74
2022/01/18 11:37:18;;;;;;;5.72;1.33;;;;;;;2.32;54.29;95600.50;5151320;27;20227;-76
2022/01/18 11:39:45;;;;;;;5.68;1.52;;;;;;;2.40;53.83;95592.81;5152763;27;20235;-77
2022/01/18 11:42:13;;;;;;;3.63;1.88;;;;;;;2.07;54.42;95577.78;5149069;27;20209;-76
2022/01/18 11:44:41;;;;;;;1.75;0.98;;;;;;;2.12;54.47;95591.19;5153818;27;20274;-74
2022/01/18 11:47:09;;;;;;;4.00;0.93;;;;;;;2.10;54.51;95587.16;5154968;27;20196;-77
2022/01/18 11:49:48;;;;;;;1.20;0.90;;;;;;;1.90;55.08;95576.25;5155008;27;20264;-77
2022/01/18 11:52:31;;;;;;;1.92;1.00;;;;;;;1.93;55.40;95587.22;5154656;27;20216;-75
2022/01/18 11:55:04;;;;;;;2.42;1.73;;;;;;;2.20;53.91;95586.44;5154421;27;20224;-75
2022/01/18 11:57:36;;;;;;;1.92;1.30;;;;;;;2.28;54.42;95588.69;5155034;27;20249;-76
2022/01/18 12:00:24;;;;;;;4.82;1.48;;;;;;;2.23;53.96;95585.97;5154120;27;20216;-75
2022/01/18 12:02:55;;;;;;;2.88;1.60;;;;;;;2.16;54.13;95590.69;5154159;27;20233;-74
2022/01/18 12:05:26;;;;;;;9.05;1.33;;;;;;;2.57;52.34;95581.22;5154673;27;20455;-75
2022/01/18 12:08:03;;;;;;;2.53;1.10;;;;;;;2.30;52.67;95587.38;5154842;27;20192;-74
2022/01/18 12:10:46;;;;;;;4.50;1.27;;;;;;;2.52;53.74;95584.66;5142192;27;20265;-75
2022/01/18 12:13:25;;;;;;;1.75;1.13;;;;;;;2.37;52.68;95597.88;5154620;27;20606;-75
2022/01/18 12:15:56;;;;;;;8.32;1.13;;;;;;;2.20;54.15;95570.41;5153990;27;20231;-74
2022/01/18 12:18:25;;;;;;;3.88;1.45;;;;;;;2.23;54.62;95564.56;5154413;27;20204;-76
2022/01/18 12:20:54;;;;;;;3.25;1.40;;;;;;;2.20;53.85;95562.41;5153123;27;20245;-76
2022/01/18 12:23:23;;;;;;;2.50;1.00;;;;;;;2.04;52.97;95567.59;5140462;27;20196;-75
2022/01/18 12:25:57;;;;;;;2.53;1.48;;;;;;;1.90;53.43;95566.38;5154634;27;20210;-76
2022/01/18 12:28:55;;;;;;;5.57;1.73;;;;;;;1.81;54.00;95567.84;5154206;27;20615;-74
2022/01/18 12:32:17;;;;;;;2.20;1.40;;;;;;;2.04;53.47;95559.59;5154527;27;20236;-76
2022/01/18 12:34:59;;;;;;;2.05;1.30;;;;;;;1.95;53.89;95568.28;5154524;27;20189;-75
2022/01/18 12:37:40;;;;;;;1.88;0.88;;;;;;;2.05;54.60;95563.84;5154185;27;20252;-75